sensor_id;sensor_type;location;lat;lon;timestamp;pressure;altitude;pressure_sealevel;temperature
82774;BMP280;72508;45.118;20.728;2024-03-06T00:04:33;100265.38;;;15.15
82774;BMP280;72508;45.118;20.728;2024-03-06T00:14:36;100268.63;;;15.00
82774;BMP280;72508;45.118;20.728;2024-03-06T00:24:38;100274.38;;;14.97
82774;BMP280;72508;45.118;20.728;2024-03-06T00:34:41;100261.75;;;14.99
82774;BMP280;72508;45.118;20.728;2024-03-06T00:44:43;100249.72;;;15.08
82774;BMP280;72508;45.118;20.728;2024-03-06T00:54:47;100254.75;;;15.10
82774;BMP280;72508;45.118;20.728;2024-03-06T01:04:49;100256.06;;;15.07
82774;BMP280;72508;45.118;20.728;2024-03-06T01:14:52;100263.28;;;14.95
82774;BMP280;72508;45.118;20.728;2024-03-06T01:24:55;100247.88;;;14.87
82774;BMP280;72508;45.118;20.728;2024-03-06T01:34:59;100274.38;;;14.97
82774;BMP280;72508;45.118;20.728;2024-03-06T01:45:02;100273.34;;;14.98
82774;BMP280;72508;45.118;20.728;2024-03-06T01:55:06;100284.91;;;14.97
82774;BMP280;72508;45.118;20.728;2024-03-06T02:05:10;100286.88;;;14.85
82774;BMP280;72508;45.118;20.728;2024-03-06T02:15:15;100279.56;;;14.92
82774;BMP280;72508;45.118;20.728;2024-03-06T02:25:17;100289.75;;;14.83
82774;BMP280;72508;45.118;20.728;2024-03-06T02:35:21;100246.78;;;14.49
82774;BMP280;72508;45.118;20.728;2024-03-06T02:45:25;100291.34;;;14.67
82774;BMP280;72508;45.118;20.728;2024-03-06T02:55:28;100295.38;;;14.70
82774;BMP280;72508;45.118;20.728;2024-03-06T03:05:30;100294.41;;;14.59
82774;BMP280;72508;45.118;20.728;2024-03-06T03:15:33;100300.44;;;14.43
82774;BMP280;72508;45.118;20.728;2024-03-06T03:25:36;100297.19;;;14.36
82774;BMP280;72508;45.118;20.728;2024-03-06T03:35:38;100302.84;;;14.27
82774;BMP280;72508;45.118;20.728;2024-03-06T03:45:40;100293.25;;;14.21
82774;BMP280;72508;45.118;20.728;2024-03-06T03:55:42;100292.13;;;14.17
82774;BMP280;72508;45.118;20.728;2024-03-06T04:05:43;100308.56;;;14.24
82774;BMP280;72508;45.118;20.728;2024-03-06T04:15:45;100312.53;;;14.10
82774;BMP280;72508;45.118;20.728;2024-03-06T04:25:47;100330.00;;;13.99
82774;BMP280;72508;45.118;20.728;2024-03-06T04:35:49;100330.69;;;13.95
82774;BMP280;72508;45.118;20.728;2024-03-06T04:45:51;100329.38;;;13.92
82774;BMP280;72508;45.118;20.728;2024-03-06T04:55:52;100343.16;;;13.99
82774;BMP280;72508;45.118;20.728;2024-03-06T05:05:54;100348.84;;;14.08
82774;BMP280;72508;45.118;20.728;2024-03-06T05:15:56;100358.69;;;14.13
82774;BMP280;72508;45.118;20.728;2024-03-06T05:25:58;100380.38;;;14.32
82774;BMP280;72508;45.118;20.728;2024-03-06T05:36:00;100402.78;;;14.17
82774;BMP280;72508;45.118;20.728;2024-03-06T05:46:02;100414.75;;;14.25
82774;BMP280;72508;45.118;20.728;2024-03-06T05:56:05;100424.94;;;14.33
82774;BMP280;72508;45.118;20.728;2024-03-06T06:06:07;100420.09;;;14.42
82774;BMP280;72508;45.118;20.728;2024-03-06T06:16:13;100428.25;;;14.28
82774;BMP280;72508;45.118;20.728;2024-03-06T06:26:22;100421.97;;;14.30
82774;BMP280;72508;45.118;20.728;2024-03-06T06:36:28;100423.66;;;14.07
82774;BMP280;72508;45.118;20.728;2024-03-06T06:46:30;100427.53;;;14.16
82774;BMP280;72508;45.118;20.728;2024-03-06T06:56:33;100422.81;;;14.18
82774;BMP280;72508;45.118;20.728;2024-03-06T07:06:41;100422.75;;;14.30
82774;BMP280;72508;45.118;20.728;2024-03-06T07:16:44;100441.75;;;14.32
82774;BMP280;72508;45.118;20.728;2024-03-06T07:26:51;100428.97;;;14.24
82774;BMP280;72508;45.118;20.728;2024-03-06T07:36:54;100440.34;;;14.53
82774;BMP280;72508;45.118;20.728;2024-03-06T07:47:06;100450.25;;;14.63
82774;BMP280;72508;45.118;20.728;2024-03-06T07:57:10;100449.41;;;14.62
82774;BMP280;72508;45.118;20.728;2024-03-06T08:07:11;100446.56;;;14.64
82774;BMP280;72508;45.118;20.728;2024-03-06T08:17:15;100455.22;;;14.76
82774;BMP280;72508;45.118;20.728;2024-03-06T08:27:21;100451.63;;;14.65
82774;BMP280;72508;45.118;20.728;2024-03-06T08:37:23;100448.16;;;14.36
82774;BMP280;72508;45.118;20.728;2024-03-06T08:47:24;100453.53;;;14.53
82774;BMP280;72508;45.118;20.728;2024-03-06T08:57:30;100455.09;;;14.54
82774;BMP280;72508;45.118;20.728;2024-03-06T09:07:46;100471.72;;;15.00
82774;BMP280;72508;45.118;20.728;2024-03-06T09:18:13;100476.03;;;15.23
82774;BMP280;72508;45.118;20.728;2024-03-06T09:28:20;100469.78;;;15.46
82774;BMP280;72508;45.118;20.728;2024-03-06T09:38:34;100458.88;;;15.59
82774;BMP280;72508;45.118;20.728;2024-03-06T09:48:49;100447.03;;;15.62
82774;BMP280;72508;45.118;20.728;2024-03-06T09:58:53;100453.66;;;15.81
82774;BMP280;72508;45.118;20.728;2024-03-06T10:09:03;100451.44;;;15.56
82774;BMP280;72508;45.118;20.728;2024-03-06T10:19:15;100423.47;;;15.38
82774;BMP280;72508;45.118;20.728;2024-03-06T10:29:19;100431.78;;;15.47
82774;BMP280;72508;45.118;20.728;2024-03-06T10:39:24;100427.63;;;15.34
82774;BMP280;72508;45.118;20.728;2024-03-06T10:49:37;100422.66;;;15.38
82774;BMP280;72508;45.118;20.728;2024-03-06T10:59:43;100406.22;;;15.31
82774;BMP280;72508;45.118;20.728;2024-03-06T11:09:47;100394.75;;;15.59
82774;BMP280;72508;45.118;20.728;2024-03-06T11:20:22;100385.63;;;15.72
82774;BMP280;72508;45.118;20.728;2024-03-06T11:31:11;100366.25;;;15.88
82774;BMP280;72508;45.118;20.728;2024-03-06T11:41:16;100373.41;;;16.15
82774;BMP280;72508;45.118;20.728;2024-03-06T11:51:19;100357.94;;;15.96
82774;BMP280;72508;45.118;20.728;2024-03-06T12:01:22;100344.47;;;16.25
82774;BMP280;72508;45.118;20.728;2024-03-06T12:11:35;100335.94;;;16.92
82774;BMP280;72508;45.118;20.728;2024-03-06T12:21:41;100315.88;;;18.05
82774;BMP280;72508;45.118;20.728;2024-03-06T12:31:44;100305.41;;;19.90
82774;BMP280;72508;45.118;20.728;2024-03-06T12:41:46;100264.03;;;20.80
82774;BMP280;72508;45.118;20.728;2024-03-06T12:51:49;100278.41;;;21.87
82774;BMP280;72508;45.118;20.728;2024-03-06T13:01:53;100278.72;;;21.53
82774;BMP280;72508;45.118;20.728;2024-03-06T13:11:56;100281.06;;;21.87
82774;BMP280;72508;45.118;20.728;2024-03-06T13:21:58;100257.56;;;21.89
82774;BMP280;72508;45.118;20.728;2024-03-06T13:32:00;100258.94;;;22.55
82774;BMP280;72508;45.118;20.728;2024-03-06T13:42:03;100177.09;;;20.89
82774;BMP280;72508;45.118;20.728;2024-03-06T13:52:07;100203.94;;;21.11
82774;BMP280;72508;45.118;20.728;2024-03-06T14:02:11;100225.91;;;21.36
82774;BMP280;72508;45.118;20.728;2024-03-06T14:12:13;100198.56;;;20.79
82774;BMP280;72508;45.118;20.728;2024-03-06T14:22:14;100197.94;;;20.44
82774;BMP280;72508;45.118;20.728;2024-03-06T14:32:21;100197.09;;;20.25
82774;BMP280;72508;45.118;20.728;2024-03-06T14:42:23;100201.34;;;20.26
82774;BMP280;72508;45.118;20.728;2024-03-06T14:52:25;100185.84;;;20.09
82774;BMP280;72508;45.118;20.728;2024-03-06T15:02:27;100196.50;;;20.33
82774;BMP280;72508;45.118;20.728;2024-03-06T15:12:29;100195.81;;;20.46
82774;BMP280;72508;45.118;20.728;2024-03-06T15:22:31;100164.28;;;19.86
82774;BMP280;72508;45.118;20.728;2024-03-06T15:32:34;100186.50;;;19.71
82774;BMP280;72508;45.118;20.728;2024-03-06T15:42:39;100169.72;;;19.42
82774;BMP280;72508;45.118;20.728;2024-03-06T15:52:41;100203.28;;;19.27
82774;BMP280;72508;45.118;20.728;2024-03-06T16:02:44;100201.22;;;19.19
82774;BMP280;72508;45.118;20.728;2024-03-06T16:12:48;100211.16;;;18.98
82774;BMP280;72508;45.118;20.728;2024-03-06T16:22:50;100196.78;;;18.50
82774;BMP280;72508;45.118;20.728;2024-03-06T16:32:52;100201.09;;;18.30
82774;BMP280;72508;45.118;20.728;2024-03-06T16:42:54;100229.75;;;18.28
82774;BMP280;72508;45.118;20.728;2024-03-06T16:52:56;100230.31;;;17.84
82774;BMP280;72508;45.118;20.728;2024-03-06T17:02:59;100245.94;;;17.50
82774;BMP280;72508;45.118;20.728;2024-03-06T17:13:01;100247.63;;;16.99
82774;BMP280;72508;45.118;20.728;2024-03-06T17:23:03;100265.19;;;16.67
82774;BMP280;72508;45.118;20.728;2024-03-06T17:33:05;100254.19;;;16.43
82774;BMP280;72508;45.118;20.728;2024-03-06T17:43:07;100251.38;;;16.18
82774;BMP280;72508;45.118;20.728;2024-03-06T17:53:09;100243.34;;;16.02
82774;BMP280;72508;45.118;20.728;2024-03-06T18:03:11;100236.66;;;15.68
82774;BMP280;72508;45.118;20.728;2024-03-06T18:13:12;100213.16;;;15.39
82774;BMP280;72508;45.118;20.728;2024-03-06T18:23:14;100231.19;;;15.47
82774;BMP280;72508;45.118;20.728;2024-03-06T18:33:16;100251.66;;;15.35
82774;BMP280;72508;45.118;20.728;2024-03-06T18:43:17;100254.75;;;15.32
82774;BMP280;72508;45.118;20.728;2024-03-06T18:53:19;100251.13;;;15.16
82774;BMP280;72508;45.118;20.728;2024-03-06T19:03:21;100239.06;;;14.98
82774;BMP280;72508;45.118;20.728;2024-03-06T19:13:23;100254.88;;;14.98
82774;BMP280;72508;45.118;20.728;2024-03-06T19:23:24;100248.72;;;14.70
82774;BMP280;72508;45.118;20.728;2024-03-06T19:33:26;100253.00;;;14.77
82774;BMP280;72508;45.118;20.728;2024-03-06T19:43:28;100262.94;;;14.91
82774;BMP280;72508;45.118;20.728;2024-03-06T19:53:34;100264.34;;;14.94
82774;BMP280;72508;45.118;20.728;2024-03-06T20:03:36;100259.72;;;14.67
82774;BMP280;72508;45.118;20.728;2024-03-06T20:13:38;100274.59;;;14.74
82774;BMP280;72508;45.118;20.728;2024-03-06T20:23:40;100261.97;;;14.76
82774;BMP280;72508;45.118;20.728;2024-03-06T20:33:43;100247.56;;;14.66
82774;BMP280;72508;45.118;20.728;2024-03-06T20:43:46;100270.81;;;14.69
82774;BMP280;72508;45.118;20.728;2024-03-06T20:53:47;100325.38;;;14.35
82774;BMP280;72508;45.118;20.728;2024-03-06T21:03:49;100329.91;;;14.40
82774;BMP280;72508;45.118;20.728;2024-03-06T21:13:51;100347.72;;;14.33
82774;BMP280;72508;45.118;20.728;2024-03-06T21:23:53;100327.94;;;14.47
82774;BMP280;72508;45.118;20.728;2024-03-06T21:33:54;100325.53;;;14.62
82774;BMP280;72508;45.118;20.728;2024-03-06T21:43:56;100295.09;;;14.55
82774;BMP280;72508;45.118;20.728;2024-03-06T21:53:58;100283.22;;;14.52
82774;BMP280;72508;45.118;20.728;2024-03-06T22:04:00;100254.06;;;14.42
82774;BMP280;72508;45.118;20.728;2024-03-06T22:14:01;100248.09;;;14.30
82774;BMP280;72508;45.118;20.728;2024-03-06T22:24:04;100237.34;;;14.19
82774;BMP280;72508;45.118;20.728;2024-03-06T22:34:06;100250.63;;;14.24
82774;BMP280;72508;45.118;20.728;2024-03-06T22:44:08;100259.59;;;14.23
82774;BMP280;72508;45.118;20.728;2024-03-06T22:54:10;100253.81;;;14.26
82774;BMP280;72508;45.118;20.728;2024-03-06T23:04:12;100233.63;;;14.15
82774;BMP280;72508;45.118;20.728;2024-03-06T23:14:14;100240.56;;;14.21
82774;BMP280;72508;45.118;20.728;2024-03-06T23:24:17;100236.72;;;14.12
82774;BMP280;72508;45.118;20.728;2024-03-06T23:34:19;100229.22;;;14.04
82774;BMP280;72508;45.118;20.728;2024-03-06T23:44:22;100234.50;;;14.04
82774;BMP280;72508;45.118;20.728;2024-03-06T23:54:24;100228.66;;;14.02
